sensor_id;sensor_type;location;lat;lon;timestamp;P1;durP1;ratioP1;P2;durP2;ratioP2
34549;SDS011;66080;52.078;5.626;2023-08-06T00:00:05;4.25;;;3.13;;
34549;SDS011;66080;52.078;5.626;2023-08-06T00:02:31;6.00;;;3.67;;
34549;SDS011;66080;52.078;5.626;2023-08-06T00:04:56;3.92;;;3.50;;
34549;SDS011;66080;52.078;5.626;2023-08-06T00:07:22;4.90;;;4.30;;
34549;SDS011;66080;52.078;5.626;2023-08-06T00:09:47;4.22;;;3.83;;
34549;SDS011;66080;52.078;5.626;2023-08-06T00:12:13;7.45;;;3.90;;
34549;SDS011;66080;52.078;5.626;2023-08-06T00:14:38;6.78;;;4.18;;
34549;SDS011;66080;52.078;5.626;2023-08-06T00:17:04;7.47;;;4.75;;
34549;SDS011;66080;52.078;5.626;2023-08-06T00:19:30;5.40;;;4.65;;
34549;SDS011;66080;52.078;5.626;2023-08-06T00:21:56;7.65;;;4.70;;
34549;SDS011;66080;52.078;5.626;2023-08-06T00:24:22;5.63;;;4.90;;
34549;SDS011;66080;52.078;5.626;2023-08-06T00:26:48;10.90;;;5.05;;
34549;SDS011;66080;52.078;5.626;2023-08-06T00:29:13;7.47;;;5.03;;
34549;SDS011;66080;52.078;5.626;2023-08-06T00:31:39;14.02;;;5.90;;
34549;SDS011;66080;52.078;5.626;2023-08-06T00:34:05;6.85;;;5.93;;
34549;SDS011;66080;52.078;5.626;2023-08-06T00:36:30;5.45;;;4.60;;
34549;SDS011;66080;52.078;5.626;2023-08-06T00:38:56;6.93;;;5.68;;
34549;SDS011;66080;52.078;5.626;2023-08-06T00:41:21;9.70;;;6.30;;
34549;SDS011;66080;52.078;5.626;2023-08-06T00:43:47;7.15;;;5.55;;
34549;SDS011;66080;52.078;5.626;2023-08-06T00:46:12;9.95;;;5.28;;
34549;SDS011;66080;52.078;5.626;2023-08-06T00:48:39;6.90;;;5.35;;
34549;SDS011;66080;52.078;5.626;2023-08-06T00:51:05;9.05;;;5.57;;
34549;SDS011;66080;52.078;5.626;2023-08-06T00:53:31;8.63;;;5.75;;
34549;SDS011;66080;52.078;5.626;2023-08-06T00:55:57;8.07;;;5.10;;
34549;SDS011;66080;52.078;5.626;2023-08-06T00:58:23;7.63;;;5.53;;
34549;SDS011;66080;52.078;5.626;2023-08-06T01:00:49;7.88;;;5.38;;
34549;SDS011;66080;52.078;5.626;2023-08-06T01:03:15;6.55;;;5.65;;
34549;SDS011;66080;52.078;5.626;2023-08-06T01:05:41;7.32;;;5.35;;
34549;SDS011;66080;52.078;5.626;2023-08-06T01:08:19;8.23;;;5.95;;
34549;SDS011;66080;52.078;5.626;2023-08-06T01:10:59;10.05;;;6.25;;
34549;SDS011;66080;52.078;5.626;2023-08-06T01:13:37;8.75;;;5.78;;
34549;SDS011;66080;52.078;5.626;2023-08-06T01:16:06;8.80;;;5.93;;
34549;SDS011;66080;52.078;5.626;2023-08-06T01:18:34;10.18;;;5.28;;
34549;SDS011;66080;52.078;5.626;2023-08-06T01:21:00;11.50;;;6.47;;
34549;SDS011;66080;52.078;5.626;2023-08-06T01:23:26;10.70;;;6.10;;
34549;SDS011;66080;52.078;5.626;2023-08-06T01:26:05;6.97;;;5.63;;
34549;SDS011;66080;52.078;5.626;2023-08-06T01:28:45;12.52;;;6.93;;
34549;SDS011;66080;52.078;5.626;2023-08-06T01:31:31;14.02;;;7.82;;
34549;SDS011;66080;52.078;5.626;2023-08-06T01:34:00;8.82;;;6.45;;
34549;SDS011;66080;52.078;5.626;2023-08-06T01:36:28;11.57;;;7.15;;
34549;SDS011;66080;52.078;5.626;2023-08-06T01:38:53;8.70;;;6.78;;
34549;SDS011;66080;52.078;5.626;2023-08-06T01:41:19;10.00;;;6.80;;
34549;SDS011;66080;52.078;5.626;2023-08-06T01:43:45;10.52;;;6.47;;
34549;SDS011;66080;52.078;5.626;2023-08-06T01:46:10;8.73;;;7.30;;
34549;SDS011;66080;52.078;5.626;2023-08-06T01:48:36;11.80;;;7.00;;
34549;SDS011;66080;52.078;5.626;2023-08-06T01:51:05;8.45;;;6.63;;
34549;SDS011;66080;52.078;5.626;2023-08-06T01:53:31;11.05;;;8.20;;
34549;SDS011;66080;52.078;5.626;2023-08-06T01:55:56;12.30;;;7.43;;
34549;SDS011;66080;52.078;5.626;2023-08-06T01:58:22;9.48;;;7.95;;
34549;SDS011;66080;52.078;5.626;2023-08-06T02:00:48;11.32;;;7.10;;
34549;SDS011;66080;52.078;5.626;2023-08-06T02:03:13;10.45;;;7.72;;
34549;SDS011;66080;52.078;5.626;2023-08-06T02:05:39;10.35;;;7.93;;
34549;SDS011;66080;52.078;5.626;2023-08-06T02:08:05;10.02;;;6.68;;
34549;SDS011;66080;52.078;5.626;2023-08-06T02:10:31;12.95;;;7.60;;
34549;SDS011;66080;52.078;5.626;2023-08-06T02:12:56;8.32;;;6.72;;
34549;SDS011;66080;52.078;5.626;2023-08-06T02:15:22;7.78;;;6.28;;
34549;SDS011;66080;52.078;5.626;2023-08-06T02:17:47;11.23;;;6.10;;
34549;SDS011;66080;52.078;5.626;2023-08-06T02:20:13;8.40;;;6.22;;
34549;SDS011;66080;52.078;5.626;2023-08-06T02:22:38;8.27;;;6.53;;
34549;SDS011;66080;52.078;5.626;2023-08-06T02:25:04;10.38;;;6.22;;
34549;SDS011;66080;52.078;5.626;2023-08-06T02:27:30;9.65;;;6.85;;
34549;SDS011;66080;52.078;5.626;2023-08-06T02:29:55;7.38;;;5.95;;
34549;SDS011;66080;52.078;5.626;2023-08-06T02:32:22;5.75;;;5.15;;
34549;SDS011;66080;52.078;5.626;2023-08-06T02:34:48;8.35;;;4.43;;
34549;SDS011;66080;52.078;5.626;2023-08-06T02:37:13;4.78;;;4.05;;
34549;SDS011;66080;52.078;5.626;2023-08-06T02:39:39;3.88;;;3.17;;
34549;SDS011;66080;52.078;5.626;2023-08-06T02:42:08;4.18;;;3.25;;
34549;SDS011;66080;52.078;5.626;2023-08-06T02:44:34;3.58;;;3.22;;
34549;SDS011;66080;52.078;5.626;2023-08-06T02:47:00;6.47;;;3.60;;
34549;SDS011;66080;52.078;5.626;2023-08-06T02:49:26;7.85;;;3.05;;
34549;SDS011;66080;52.078;5.626;2023-08-06T02:51:51;6.00;;;3.33;;
34549;SDS011;66080;52.078;5.626;2023-08-06T02:54:20;4.40;;;3.30;;
34549;SDS011;66080;52.078;5.626;2023-08-06T02:56:45;4.43;;;3.92;;
34549;SDS011;66080;52.078;5.626;2023-08-06T02:59:12;7.47;;;4.63;;
34549;SDS011;66080;52.078;5.626;2023-08-06T03:01:38;5.65;;;5.00;;
34549;SDS011;66080;52.078;5.626;2023-08-06T03:04:03;6.00;;;4.38;;
34549;SDS011;66080;52.078;5.626;2023-08-06T03:06:29;7.85;;;5.20;;
34549;SDS011;66080;52.078;5.626;2023-08-06T03:08:55;9.00;;;5.97;;
34549;SDS011;66080;52.078;5.626;2023-08-06T03:11:20;6.20;;;5.57;;
34549;SDS011;66080;52.078;5.626;2023-08-06T03:13:47;6.95;;;6.03;;
34549;SDS011;66080;52.078;5.626;2023-08-06T03:16:13;10.90;;;5.88;;
34549;SDS011;66080;52.078;5.626;2023-08-06T03:18:38;8.60;;;6.97;;
34549;SDS011;66080;52.078;5.626;2023-08-06T03:21:04;11.35;;;7.53;;
34549;SDS011;66080;52.078;5.626;2023-08-06T03:23:29;9.60;;;7.20;;
34549;SDS011;66080;52.078;5.626;2023-08-06T03:25:55;9.35;;;6.25;;
34549;SDS011;66080;52.078;5.626;2023-08-06T03:28:20;8.68;;;6.90;;
34549;SDS011;66080;52.078;5.626;2023-08-06T03:30:47;10.73;;;7.18;;
34549;SDS011;66080;52.078;5.626;2023-08-06T03:33:13;15.82;;;8.45;;
34549;SDS011;66080;52.078;5.626;2023-08-06T03:35:39;8.38;;;7.05;;
34549;SDS011;66080;52.078;5.626;2023-08-06T03:38:04;9.50;;;7.70;;
34549;SDS011;66080;52.078;5.626;2023-08-06T03:40:30;8.95;;;7.82;;
34549;SDS011;66080;52.078;5.626;2023-08-06T03:42:56;11.45;;;8.50;;
34549;SDS011;66080;52.078;5.626;2023-08-06T03:45:21;10.35;;;7.45;;
34549;SDS011;66080;52.078;5.626;2023-08-06T03:47:47;9.98;;;8.27;;
34549;SDS011;66080;52.078;5.626;2023-08-06T03:50:12;10.25;;;7.47;;
34549;SDS011;66080;52.078;5.626;2023-08-06T03:52:38;10.85;;;8.45;;
34549;SDS011;66080;52.078;5.626;2023-08-06T03:55:04;9.23;;;7.25;;
34549;SDS011;66080;52.078;5.626;2023-08-06T03:57:29;11.35;;;7.70;;
34549;SDS011;66080;52.078;5.626;2023-08-06T03:59:55;9.57;;;8.57;;
34549;SDS011;66080;52.078;5.626;2023-08-06T04:02:20;6.82;;;6.10;;
34549;SDS011;66080;52.078;5.626;2023-08-06T04:04:46;9.18;;;6.85;;
34549;SDS011;66080;52.078;5.626;2023-08-06T04:07:11;7.57;;;6.70;;
34549;SDS011;66080;52.078;5.626;2023-08-06T04:09:53;7.53;;;6.65;;
34549;SDS011;66080;52.078;5.626;2023-08-06T04:12:22;8.50;;;7.47;;
34549;SDS011;66080;52.078;5.626;2023-08-06T04:14:49;7.30;;;6.57;;
34549;SDS011;66080;52.078;5.626;2023-08-06T04:17:16;8.63;;;7.82;;
34549;SDS011;66080;52.078;5.626;2023-08-06T04:19:45;12.13;;;7.40;;
34549;SDS011;66080;52.078;5.626;2023-08-06T04:22:11;7.60;;;6.68;;
34549;SDS011;66080;52.078;5.626;2023-08-06T04:24:36;7.90;;;7.03;;
34549;SDS011;66080;52.078;5.626;2023-08-06T04:27:02;7.85;;;6.40;;
34549;SDS011;66080;52.078;5.626;2023-08-06T04:29:28;21.02;;;7.68;;
34549;SDS011;66080;52.078;5.626;2023-08-06T04:31:53;10.07;;;8.68;;
34549;SDS011;66080;52.078;5.626;2023-08-06T04:34:19;9.77;;;8.05;;
34549;SDS011;66080;52.078;5.626;2023-08-06T04:36:44;8.98;;;8.02;;
34549;SDS011;66080;52.078;5.626;2023-08-06T04:39:10;9.05;;;7.25;;
34549;SDS011;66080;52.078;5.626;2023-08-06T04:41:35;9.38;;;8.07;;
34549;SDS011;66080;52.078;5.626;2023-08-06T04:44:01;10.25;;;8.77;;
34549;SDS011;66080;52.078;5.626;2023-08-06T04:46:26;10.15;;;9.13;;
34549;SDS011;66080;52.078;5.626;2023-08-06T04:48:52;14.18;;;8.43;;
34549;SDS011;66080;52.078;5.626;2023-08-06T04:51:17;13.52;;;9.25;;
34549;SDS011;66080;52.078;5.626;2023-08-06T04:53:43;14.55;;;9.88;;
34549;SDS011;66080;52.078;5.626;2023-08-06T04:56:08;10.43;;;8.85;;
34549;SDS011;66080;52.078;5.626;2023-08-06T04:58:34;14.75;;;10.48;;
34549;SDS011;66080;52.078;5.626;2023-08-06T05:00:59;14.63;;;9.55;;
34549;SDS011;66080;52.078;5.626;2023-08-06T05:03:25;15.75;;;10.15;;
34549;SDS011;66080;52.078;5.626;2023-08-06T05:05:51;17.08;;;9.95;;
34549;SDS011;66080;52.078;5.626;2023-08-06T05:08:16;13.45;;;9.75;;
34549;SDS011;66080;52.078;5.626;2023-08-06T05:10:43;15.25;;;9.98;;
34549;SDS011;66080;52.078;5.626;2023-08-06T05:13:09;13.77;;;9.38;;
34549;SDS011;66080;52.078;5.626;2023-08-06T05:15:35;12.98;;;9.50;;
34549;SDS011;66080;52.078;5.626;2023-08-06T05:18:00;11.13;;;8.23;;
34549;SDS011;66080;52.078;5.626;2023-08-06T05:20:26;15.00;;;10.13;;
34549;SDS011;66080;52.078;5.626;2023-08-06T05:22:51;16.02;;;10.10;;
34549;SDS011;66080;52.078;5.626;2023-08-06T05:25:17;12.07;;;8.77;;
34549;SDS011;66080;52.078;5.626;2023-08-06T05:27:42;10.52;;;9.27;;
34549;SDS011;66080;52.078;5.626;2023-08-06T05:30:08;17.25;;;10.82;;
34549;SDS011;66080;52.078;5.626;2023-08-06T05:32:35;10.60;;;9.50;;
34549;SDS011;66080;52.078;5.626;2023-08-06T05:35:00;11.85;;;10.10;;
34549;SDS011;66080;52.078;5.626;2023-08-06T05:37:26;12.45;;;9.30;;
34549;SDS011;66080;52.078;5.626;2023-08-06T05:39:51;12.20;;;9.90;;
34549;SDS011;66080;52.078;5.626;2023-08-06T05:42:17;10.13;;;8.65;;
34549;SDS011;66080;52.078;5.626;2023-08-06T05:44:42;14.75;;;9.77;;
34549;SDS011;66080;52.078;5.626;2023-08-06T05:47:08;15.52;;;10.88;;
34549;SDS011;66080;52.078;5.626;2023-08-06T05:49:33;14.55;;;9.40;;
34549;SDS011;66080;52.078;5.626;2023-08-06T05:51:59;12.93;;;9.82;;
34549;SDS011;66080;52.078;5.626;2023-08-06T05:54:25;11.98;;;9.85;;
34549;SDS011;66080;52.078;5.626;2023-08-06T05:56:50;12.40;;;9.40;;
34549;SDS011;66080;52.078;5.626;2023-08-06T05:59:16;14.50;;;9.88;;
34549;SDS011;66080;52.078;5.626;2023-08-06T06:01:41;12.60;;;10.52;;
34549;SDS011;66080;52.078;5.626;2023-08-06T06:04:07;11.95;;;10.50;;
34549;SDS011;66080;52.078;5.626;2023-08-06T06:06:32;12.95;;;10.70;;
34549;SDS011;66080;52.078;5.626;2023-08-06T06:08:58;13.75;;;10.88;;
34549;SDS011;66080;52.078;5.626;2023-08-06T06:11:23;11.95;;;10.15;;
34549;SDS011;66080;52.078;5.626;2023-08-06T06:13:50;15.20;;;10.90;;
34549;SDS011;66080;52.078;5.626;2023-08-06T06:16:16;15.93;;;11.48;;
34549;SDS011;66080;52.078;5.626;2023-08-06T06:18:42;14.88;;;11.98;;
34549;SDS011;66080;52.078;5.626;2023-08-06T06:21:09;16.23;;;11.88;;
34549;SDS011;66080;52.078;5.626;2023-08-06T06:23:35;19.05;;;12.18;;
34549;SDS011;66080;52.078;5.626;2023-08-06T06:26:00;15.68;;;12.25;;
34549;SDS011;66080;52.078;5.626;2023-08-06T06:28:26;13.93;;;11.70;;
34549;SDS011;66080;52.078;5.626;2023-08-06T06:30:51;13.48;;;10.63;;
34549;SDS011;66080;52.078;5.626;2023-08-06T06:33:17;14.98;;;11.52;;
34549;SDS011;66080;52.078;5.626;2023-08-06T06:35:43;17.38;;;10.85;;
34549;SDS011;66080;52.078;5.626;2023-08-06T06:38:08;18.25;;;12.70;;
34549;SDS011;66080;52.078;5.626;2023-08-06T06:40:34;17.48;;;13.00;;
34549;SDS011;66080;52.078;5.626;2023-08-06T06:42:59;16.13;;;12.38;;
34549;SDS011;66080;52.078;5.626;2023-08-06T06:45:25;17.35;;;11.35;;
34549;SDS011;66080;52.078;5.626;2023-08-06T06:47:50;12.05;;;10.52;;
34549;SDS011;66080;52.078;5.626;2023-08-06T06:50:16;15.57;;;11.40;;
34549;SDS011;66080;52.078;5.626;2023-08-06T06:52:42;16.45;;;11.13;;
34549;SDS011;66080;52.078;5.626;2023-08-06T06:55:07;14.05;;;9.68;;
34549;SDS011;66080;52.078;5.626;2023-08-06T06:57:33;12.27;;;9.57;;
34549;SDS011;66080;52.078;5.626;2023-08-06T06:59:58;13.70;;;10.23;;
34549;SDS011;66080;52.078;5.626;2023-08-06T07:02:24;12.07;;;10.35;;
34549;SDS011;66080;52.078;5.626;2023-08-06T07:04:49;9.75;;;8.48;;
34549;SDS011;66080;52.078;5.626;2023-08-06T07:07:15;11.00;;;8.52;;
34549;SDS011;66080;52.078;5.626;2023-08-06T07:09:41;12.77;;;8.45;;
34549;SDS011;66080;52.078;5.626;2023-08-06T07:12:06;11.75;;;9.40;;
34549;SDS011;66080;52.078;5.626;2023-08-06T07:14:32;11.25;;;8.90;;
34549;SDS011;66080;52.078;5.626;2023-08-06T07:16:58;12.70;;;9.85;;
34549;SDS011;66080;52.078;5.626;2023-08-06T07:19:23;10.30;;;8.88;;
34549;SDS011;66080;52.078;5.626;2023-08-06T07:21:49;13.40;;;9.40;;
34549;SDS011;66080;52.078;5.626;2023-08-06T07:24:14;11.93;;;9.68;;
34549;SDS011;66080;52.078;5.626;2023-08-06T07:26:40;9.63;;;8.63;;
34549;SDS011;66080;52.078;5.626;2023-08-06T07:29:05;10.50;;;8.63;;
34549;SDS011;66080;52.078;5.626;2023-08-06T07:31:31;10.93;;;8.45;;
34549;SDS011;66080;52.078;5.626;2023-08-06T07:33:56;9.20;;;8.23;;
34549;SDS011;66080;52.078;5.626;2023-08-06T07:36:22;11.48;;;7.97;;
34549;SDS011;66080;52.078;5.626;2023-08-06T07:38:47;10.27;;;6.65;;
34549;SDS011;66080;52.078;5.626;2023-08-06T07:41:16;7.28;;;6.32;;
34549;SDS011;66080;52.078;5.626;2023-08-06T07:43:42;7.18;;;6.47;;
34549;SDS011;66080;52.078;5.626;2023-08-06T07:46:07;7.78;;;6.85;;
34549;SDS011;66080;52.078;5.626;2023-08-06T07:48:33;6.72;;;5.78;;
34549;SDS011;66080;52.078;5.626;2023-08-06T07:50:59;6.50;;;5.75;;
34549;SDS011;66080;52.078;5.626;2023-08-06T07:53:25;9.98;;;4.90;;
34549;SDS011;66080;52.078;5.626;2023-08-06T07:55:54;4.73;;;3.80;;
34549;SDS011;66080;52.078;5.626;2023-08-06T07:58:20;5.72;;;4.55;;
34549;SDS011;66080;52.078;5.626;2023-08-06T08:00:46;5.80;;;4.95;;
34549;SDS011;66080;52.078;5.626;2023-08-06T08:03:12;6.40;;;4.03;;
34549;SDS011;66080;52.078;5.626;2023-08-06T08:05:39;5.68;;;5.18;;
34549;SDS011;66080;52.078;5.626;2023-08-06T08:08:05;7.18;;;5.10;;
34549;SDS011;66080;52.078;5.626;2023-08-06T08:10:31;5.75;;;5.25;;
34549;SDS011;66080;52.078;5.626;2023-08-06T08:12:57;4.70;;;4.20;;
34549;SDS011;66080;52.078;5.626;2023-08-06T08:15:24;5.10;;;4.63;;
34549;SDS011;66080;52.078;5.626;2023-08-06T08:17:51;7.68;;;5.50;;
34549;SDS011;66080;52.078;5.626;2023-08-06T08:20:17;5.63;;;5.07;;
34549;SDS011;66080;52.078;5.626;2023-08-06T08:22:43;6.95;;;6.10;;
34549;SDS011;66080;52.078;5.626;2023-08-06T08:25:08;5.75;;;5.15;;
34549;SDS011;66080;52.078;5.626;2023-08-06T08:27:34;9.55;;;6.03;;
34549;SDS011;66080;52.078;5.626;2023-08-06T08:30:00;7.47;;;6.80;;
34549;SDS011;66080;52.078;5.626;2023-08-06T08:32:25;7.00;;;6.30;;
34549;SDS011;66080;52.078;5.626;2023-08-06T08:34:51;7.25;;;6.55;;
34549;SDS011;66080;52.078;5.626;2023-08-06T08:37:16;9.60;;;7.97;;
34549;SDS011;66080;52.078;5.626;2023-08-06T08:39:42;7.72;;;6.38;;
34549;SDS011;66080;52.078;5.626;2023-08-06T08:42:08;7.95;;;6.70;;
34549;SDS011;66080;52.078;5.626;2023-08-06T08:44:35;10.75;;;8.05;;
34549;SDS011;66080;52.078;5.626;2023-08-06T08:47:07;9.20;;;8.18;;
34549;SDS011;66080;52.078;5.626;2023-08-06T08:49:36;9.57;;;8.38;;
34549;SDS011;66080;52.078;5.626;2023-08-06T08:52:03;13.93;;;9.50;;
34549;SDS011;66080;52.078;5.626;2023-08-06T08:54:34;13.45;;;11.30;;
34549;SDS011;66080;52.078;5.626;2023-08-06T08:57:02;16.45;;;11.95;;
34549;SDS011;66080;52.078;5.626;2023-08-06T08:59:28;12.90;;;11.35;;
34549;SDS011;66080;52.078;5.626;2023-08-06T09:01:54;16.38;;;11.80;;
34549;SDS011;66080;52.078;5.626;2023-08-06T09:04:20;15.40;;;12.02;;
34549;SDS011;66080;52.078;5.626;2023-08-06T09:06:49;14.30;;;11.60;;
34549;SDS011;66080;52.078;5.626;2023-08-06T09:09:17;17.23;;;14.00;;
34549;SDS011;66080;52.078;5.626;2023-08-06T09:11:58;14.25;;;11.57;;
34549;SDS011;66080;52.078;5.626;2023-08-06T09:14:26;14.80;;;12.48;;
34549;SDS011;66080;52.078;5.626;2023-08-06T09:16:52;20.25;;;12.40;;
34549;SDS011;66080;52.078;5.626;2023-08-06T09:19:18;21.10;;;13.93;;
34549;SDS011;66080;52.078;5.626;2023-08-06T09:21:44;21.02;;;14.48;;
34549;SDS011;66080;52.078;5.626;2023-08-06T09:24:13;20.17;;;14.47;;
34549;SDS011;66080;52.078;5.626;2023-08-06T09:26:40;19.77;;;13.77;;
34549;SDS011;66080;52.078;5.626;2023-08-06T09:29:07;21.95;;;13.88;;
34549;SDS011;66080;52.078;5.626;2023-08-06T09:31:43;11.07;;;8.02;;
34549;SDS011;66080;52.078;5.626;2023-08-06T09:34:20;3.42;;;1.85;;
34549;SDS011;66080;52.078;5.626;2023-08-06T09:36:53;3.58;;;1.70;;
34549;SDS011;66080;52.078;5.626;2023-08-06T09:39:19;1.80;;;1.20;;
34549;SDS011;66080;52.078;5.626;2023-08-06T09:41:46;1.92;;;1.63;;
34549;SDS011;66080;52.078;5.626;2023-08-06T09:44:19;2.08;;;1.63;;
34549;SDS011;66080;52.078;5.626;2023-08-06T09:46:49;1.95;;;1.27;;
34549;SDS011;66080;52.078;5.626;2023-08-06T09:49:17;2.42;;;1.60;;
34549;SDS011;66080;52.078;5.626;2023-08-06T09:51:43;6.80;;;2.22;;
34549;SDS011;66080;52.078;5.626;2023-08-06T09:54:12;2.22;;;1.90;;
34549;SDS011;66080;52.078;5.626;2023-08-06T09:56:40;2.28;;;1.60;;
34549;SDS011;66080;52.078;5.626;2023-08-06T09:59:06;1.33;;;1.15;;
34549;SDS011;66080;52.078;5.626;2023-08-06T10:01:33;1.75;;;1.65;;
34549;SDS011;66080;52.078;5.626;2023-08-06T10:04:00;6.15;;;1.88;;
34549;SDS011;66080;52.078;5.626;2023-08-06T10:06:28;7.32;;;1.83;;
34549;SDS011;66080;52.078;5.626;2023-08-06T10:08:54;2.05;;;1.35;;
34549;SDS011;66080;52.078;5.626;2023-08-06T10:11:21;2.10;;;1.60;;
34549;SDS011;66080;52.078;5.626;2023-08-06T10:13:49;2.17;;;1.90;;
34549;SDS011;66080;52.078;5.626;2023-08-06T10:16:22;3.85;;;2.10;;
34549;SDS011;66080;52.078;5.626;2023-08-06T10:18:48;5.82;;;1.95;;
34549;SDS011;66080;52.078;5.626;2023-08-06T10:21:15;4.25;;;2.00;;
34549;SDS011;66080;52.078;5.626;2023-08-06T10:23:41;2.65;;;2.40;;
34549;SDS011;66080;52.078;5.626;2023-08-06T10:26:07;3.80;;;2.35;;
34549;SDS011;66080;52.078;5.626;2023-08-06T10:28:39;2.60;;;2.35;;
34549;SDS011;66080;52.078;5.626;2023-08-06T10:31:05;4.60;;;4.05;;
34549;SDS011;66080;52.078;5.626;2023-08-06T10:33:40;3.05;;;2.40;;
34549;SDS011;66080;52.078;5.626;2023-08-06T10:36:08;3.38;;;3.13;;
34549;SDS011;66080;52.078;5.626;2023-08-06T10:38:46;4.82;;;4.47;;
34549;SDS011;66080;52.078;5.626;2023-08-06T10:41:27;3.60;;;2.58;;
34549;SDS011;66080;52.078;5.626;2023-08-06T10:44:06;2.57;;;2.37;;
34549;SDS011;66080;52.078;5.626;2023-08-06T10:46:35;2.97;;;2.70;;
34549;SDS011;66080;52.078;5.626;2023-08-06T10:49:01;4.88;;;2.85;;
34549;SDS011;66080;52.078;5.626;2023-08-06T10:51:28;4.13;;;2.95;;
34549;SDS011;66080;52.078;5.626;2023-08-06T10:53:53;3.88;;;2.47;;
34549;SDS011;66080;52.078;5.626;2023-08-06T10:56:23;3.00;;;2.70;;
34549;SDS011;66080;52.078;5.626;2023-08-06T10:58:55;4.32;;;3.40;;
34549;SDS011;66080;52.078;5.626;2023-08-06T11:01:22;6.68;;;3.00;;
34549;SDS011;66080;52.078;5.626;2023-08-06T11:03:48;4.03;;;3.40;;
34549;SDS011;66080;52.078;5.626;2023-08-06T11:06:18;6.45;;;3.22;;
34549;SDS011;66080;52.078;5.626;2023-08-06T11:08:52;5.78;;;4.13;;
34549;SDS011;66080;52.078;5.626;2023-08-06T11:11:18;5.43;;;4.30;;
34549;SDS011;66080;52.078;5.626;2023-08-06T11:13:48;11.48;;;4.78;;
34549;SDS011;66080;52.078;5.626;2023-08-06T11:16:16;8.55;;;5.15;;
34549;SDS011;66080;52.078;5.626;2023-08-06T11:18:43;6.53;;;4.47;;
34549;SDS011;66080;52.078;5.626;2023-08-06T11:21:09;7.93;;;4.47;;
34549;SDS011;66080;52.078;5.626;2023-08-06T11:23:36;4.82;;;4.25;;
34549;SDS011;66080;52.078;5.626;2023-08-06T11:26:02;5.78;;;4.40;;
34549;SDS011;66080;52.078;5.626;2023-08-06T11:28:28;6.25;;;4.95;;
34549;SDS011;66080;52.078;5.626;2023-08-06T11:30:54;6.95;;;5.35;;
34549;SDS011;66080;52.078;5.626;2023-08-06T11:33:26;12.88;;;5.85;;
34549;SDS011;66080;52.078;5.626;2023-08-06T11:35:52;6.07;;;4.50;;
34549;SDS011;66080;52.078;5.626;2023-08-06T11:40:54;8.68;;;4.35;;
34549;SDS011;66080;52.078;5.626;2023-08-06T11:43:20;4.85;;;4.40;;
34549;SDS011;66080;52.078;5.626;2023-08-06T11:45:47;4.55;;;3.90;;
34549;SDS011;66080;52.078;5.626;2023-08-06T11:48:18;6.20;;;3.42;;
34549;SDS011;66080;52.078;5.626;2023-08-06T11:50:44;6.28;;;3.83;;
34549;SDS011;66080;52.078;5.626;2023-08-06T11:53:12;7.57;;;3.95;;
34549;SDS011;66080;52.078;5.626;2023-08-06T11:55:39;7.75;;;3.58;;
34549;SDS011;66080;52.078;5.626;2023-08-06T11:58:05;7.57;;;3.92;;
34549;SDS011;66080;52.078;5.626;2023-08-06T12:00:30;9.77;;;4.15;;
34549;SDS011;66080;52.078;5.626;2023-08-06T12:02:56;7.57;;;3.05;;
34549;SDS011;66080;52.078;5.626;2023-08-06T12:05:23;5.57;;;3.25;;
34549;SDS011;66080;52.078;5.626;2023-08-06T12:07:57;11.40;;;4.82;;
34549;SDS011;66080;52.078;5.626;2023-08-06T12:10:24;5.97;;;2.80;;
34549;SDS011;66080;52.078;5.626;2023-08-06T12:12:51;5.15;;;3.40;;
34549;SDS011;66080;52.078;5.626;2023-08-06T12:15:17;4.43;;;3.10;;
34549;SDS011;66080;52.078;5.626;2023-08-06T12:17:43;8.10;;;3.17;;
34549;SDS011;66080;52.078;5.626;2023-08-06T12:20:09;3.67;;;3.33;;
34549;SDS011;66080;52.078;5.626;2023-08-06T12:22:35;10.55;;;3.53;;
34549;SDS011;66080;52.078;5.626;2023-08-06T12:25:03;3.95;;;3.30;;
34549;SDS011;66080;52.078;5.626;2023-08-06T12:27:33;3.90;;;2.78;;
34549;SDS011;66080;52.078;5.626;2023-08-06T12:30:03;5.22;;;4.03;;
34549;SDS011;66080;52.078;5.626;2023-08-06T12:32:29;5.75;;;3.20;;
34549;SDS011;66080;52.078;5.626;2023-08-06T12:34:55;5.15;;;3.22;;
34549;SDS011;66080;52.078;5.626;2023-08-06T12:37:21;3.80;;;3.45;;
34549;SDS011;66080;52.078;5.626;2023-08-06T12:39:48;5.25;;;3.83;;
34549;SDS011;66080;52.078;5.626;2023-08-06T12:42:13;7.97;;;3.70;;
34549;SDS011;66080;52.078;5.626;2023-08-06T12:44:39;6.70;;;3.95;;
34549;SDS011;66080;52.078;5.626;2023-08-06T12:47:04;4.85;;;2.80;;
34549;SDS011;66080;52.078;5.626;2023-08-06T12:49:31;10.88;;;3.78;;
34549;SDS011;66080;52.078;5.626;2023-08-06T12:51:58;4.95;;;3.08;;
34549;SDS011;66080;52.078;5.626;2023-08-06T12:54:24;6.03;;;3.25;;
34549;SDS011;66080;52.078;5.626;2023-08-06T12:56:50;3.28;;;2.92;;
34549;SDS011;66080;52.078;5.626;2023-08-06T12:59:16;4.80;;;2.83;;
34549;SDS011;66080;52.078;5.626;2023-08-06T13:01:42;5.53;;;2.80;;
34549;SDS011;66080;52.078;5.626;2023-08-06T13:04:08;3.83;;;2.70;;
34549;SDS011;66080;52.078;5.626;2023-08-06T13:06:34;4.85;;;2.92;;
34549;SDS011;66080;52.078;5.626;2023-08-06T13:09:07;5.45;;;3.47;;
34549;SDS011;66080;52.078;5.626;2023-08-06T13:11:34;5.00;;;3.45;;
34549;SDS011;66080;52.078;5.626;2023-08-06T13:14:08;7.13;;;2.92;;
34549;SDS011;66080;52.078;5.626;2023-08-06T13:16:35;17.17;;;3.88;;
34549;SDS011;66080;52.078;5.626;2023-08-06T13:19:02;3.13;;;2.83;;
34549;SDS011;66080;52.078;5.626;2023-08-06T13:24:05;3.00;;;2.70;;
34549;SDS011;66080;52.078;5.626;2023-08-06T13:26:31;4.13;;;2.67;;
34549;SDS011;66080;52.078;5.626;2023-08-06T13:28:57;3.20;;;2.08;;
34549;SDS011;66080;52.078;5.626;2023-08-06T13:31:23;2.92;;;2.50;;
34549;SDS011;66080;52.078;5.626;2023-08-06T13:33:49;5.38;;;2.60;;
34549;SDS011;66080;52.078;5.626;2023-08-06T13:36:15;8.35;;;3.33;;
34549;SDS011;66080;52.078;5.626;2023-08-06T13:38:42;4.15;;;3.03;;
34549;SDS011;66080;52.078;5.626;2023-08-06T13:41:07;3.28;;;2.78;;
34549;SDS011;66080;52.078;5.626;2023-08-06T13:43:33;3.33;;;2.90;;
34549;SDS011;66080;52.078;5.626;2023-08-06T13:45:58;7.78;;;3.30;;
34549;SDS011;66080;52.078;5.626;2023-08-06T13:48:24;4.63;;;2.67;;
34549;SDS011;66080;52.078;5.626;2023-08-06T13:50:49;7.82;;;4.13;;
34549;SDS011;66080;52.078;5.626;2023-08-06T13:53:15;5.70;;;3.30;;
34549;SDS011;66080;52.078;5.626;2023-08-06T13:55:41;5.93;;;3.25;;
34549;SDS011;66080;52.078;5.626;2023-08-06T13:58:06;6.55;;;3.08;;
34549;SDS011;66080;52.078;5.626;2023-08-06T14:00:32;3.97;;;3.55;;
34549;SDS011;66080;52.078;5.626;2023-08-06T14:02:57;4.28;;;3.20;;
34549;SDS011;66080;52.078;5.626;2023-08-06T14:05:23;5.65;;;3.58;;
34549;SDS011;66080;52.078;5.626;2023-08-06T14:07:48;8.75;;;3.67;;
34549;SDS011;66080;52.078;5.626;2023-08-06T14:10:14;4.43;;;3.20;;
34549;SDS011;66080;52.078;5.626;2023-08-06T14:12:40;6.18;;;3.65;;
34549;SDS011;66080;52.078;5.626;2023-08-06T14:15:05;4.75;;;3.30;;
34549;SDS011;66080;52.078;5.626;2023-08-06T14:17:31;4.93;;;3.15;;
34549;SDS011;66080;52.078;5.626;2023-08-06T14:19:57;3.33;;;2.92;;
34549;SDS011;66080;52.078;5.626;2023-08-06T14:22:22;5.68;;;2.80;;
34549;SDS011;66080;52.078;5.626;2023-08-06T14:24:48;3.97;;;3.33;;
34549;SDS011;66080;52.078;5.626;2023-08-06T14:27:13;4.03;;;3.13;;
34549;SDS011;66080;52.078;5.626;2023-08-06T14:29:39;6.38;;;3.08;;
34549;SDS011;66080;52.078;5.626;2023-08-06T14:32:05;4.28;;;3.38;;
34549;SDS011;66080;52.078;5.626;2023-08-06T14:34:31;8.15;;;3.33;;
34549;SDS011;66080;52.078;5.626;2023-08-06T14:36:56;4.05;;;3.40;;
34549;SDS011;66080;52.078;5.626;2023-08-06T14:39:22;4.13;;;3.17;;
34549;SDS011;66080;52.078;5.626;2023-08-06T14:41:47;11.57;;;4.30;;